createdAt,value
2019-03-15T00:00:22.700Z,19.14
2019-03-15T00:01:03.370Z,19.13
2019-03-15T00:01:44.063Z,19.13
2019-03-15T00:02:24.671Z,19.18
2019-03-15T00:03:05.279Z,19.21
2019-03-15T00:03:46.008Z,19.18
2019-03-15T00:04:26.500Z,19.14
2019-03-15T00:05:07.104Z,19.13
2019-03-15T00:05:47.715Z,19.21
2019-03-15T00:06:28.300Z,19.16
2019-03-15T00:07:08.906Z,19.18
2019-03-15T00:07:49.532Z,19.19
2019-03-15T00:08:30.154Z,19.06
2019-03-15T00:09:10.753Z,19.16
2019-03-15T00:09:51.348Z,19.06
2019-03-15T00:10:31.983Z,19.11
2019-03-15T00:11:12.578Z,19.16
2019-03-15T00:11:53.189Z,19
2019-03-15T00:12:33.790Z,19.11
2019-03-15T00:13:14.372Z,19.07
2019-03-15T00:13:54.983Z,19.04
2019-03-15T00:14:35.756Z,19.08
2019-03-15T00:15:16.412Z,19.07
2019-03-15T00:15:57.014Z,19.02
2019-03-15T00:16:37.674Z,19.02
2019-03-15T00:17:18.284Z,19.06
2019-03-15T00:17:58.935Z,18.95
2019-03-15T00:18:39.547Z,19.08
2019-03-15T00:19:20.134Z,19.08
2019-03-15T00:20:00.714Z,19.07
2019-03-15T00:20:41.316Z,19
2019-03-15T00:21:21.907Z,19
2019-03-15T00:22:02.508Z,19.06
2019-03-15T00:22:43.090Z,18.99
2019-03-15T00:23:23.698Z,18.99
2019-03-15T00:24:04.314Z,18.99
2019-03-15T00:24:45.035Z,19.06
2019-03-15T00:25:25.562Z,18.99
2019-03-15T00:26:06.181Z,19.02
2019-03-15T00:26:46.922Z,18.95
2019-03-15T00:27:27.672Z,18.95
2019-03-15T00:28:08.328Z,18.99
2019-03-15T00:28:48.948Z,18.99
2019-03-15T00:29:29.546Z,19.04
2019-03-15T00:30:10.258Z,19.02
2019-03-15T00:30:50.796Z,19.02
2019-03-15T00:31:31.776Z,18.98
2019-03-15T00:32:12.439Z,18.95
2019-03-15T00:32:53.050Z,18.95
2019-03-15T00:33:33.656Z,19
2019-03-15T00:34:14.262Z,18.99
2019-03-15T00:34:54.972Z,18.98
2019-03-15T00:35:35.911Z,19
2019-03-15T00:36:16.180Z,19.02
2019-03-15T00:36:56.788Z,19
2019-03-15T00:37:37.416Z,19.02
2019-03-15T00:38:18.015Z,18.99
2019-03-15T00:38:58.610Z,18.94
2019-03-15T00:39:39.199Z,18.91
2019-03-15T00:40:19.810Z,19
2019-03-15T00:41:00.412Z,18.98
2019-03-15T00:41:41.002Z,19.02
2019-03-15T00:42:21.594Z,18.95
2019-03-15T00:43:02.170Z,18.92
2019-03-15T00:43:42.777Z,19.04
2019-03-15T00:44:23.372Z,18.94
2019-03-15T00:45:04.002Z,18.99
2019-03-15T00:45:44.604Z,18.98
2019-03-15T00:46:25.215Z,18.99
2019-03-15T00:47:05.792Z,18.94
2019-03-15T00:47:46.390Z,18.95
2019-03-15T00:48:26.980Z,19.02
2019-03-15T00:49:07.572Z,19
2019-03-15T00:49:48.168Z,18.94
2019-03-15T00:50:28.754Z,18.99
2019-03-15T00:51:09.452Z,18.95
2019-03-15T00:51:50.092Z,18.95
2019-03-15T00:52:30.705Z,18.99
2019-03-15T00:53:11.332Z,18.98
2019-03-15T00:53:54.281Z,19
2019-03-15T00:54:32.530Z,18.94
2019-03-15T00:55:13.120Z,18.9
2019-03-15T00:55:53.727Z,19.04
2019-03-15T00:56:34.350Z,18.99
2019-03-15T00:57:14.954Z,18.91
2019-03-15T00:57:55.579Z,18.95
2019-03-15T00:58:36.172Z,18.94
2019-03-15T00:59:16.772Z,18.94
2019-03-15T00:59:57.400Z,18.92
2019-03-15T01:00:38.004Z,18.91
2019-03-15T01:01:18.629Z,18.94
2019-03-15T01:01:59.216Z,19.04
2019-03-15T01:02:39.818Z,18.92
2019-03-15T01:03:20.408Z,18.92
2019-03-15T01:04:01.051Z,18.98
2019-03-15T01:04:41.614Z,19.04
2019-03-15T01:05:22.208Z,19.02
2019-03-15T01:06:02.859Z,18.91
2019-03-15T01:06:43.478Z,18.92
2019-03-15T01:07:24.114Z,19.04
2019-03-15T01:08:04.758Z,18.99
2019-03-15T01:08:45.358Z,18.94
2019-03-15T01:09:25.960Z,19.02
2019-03-15T01:10:06.618Z,18.94
2019-03-15T01:10:47.280Z,19.04
2019-03-15T01:11:27.886Z,18.98
2019-03-15T01:12:08.516Z,19
2019-03-15T01:12:49.150Z,18.94
2019-03-15T01:13:29.735Z,18.95
2019-03-15T01:14:10.402Z,18.94
2019-03-15T01:14:50.998Z,18.98
2019-03-15T01:15:31.624Z,19
2019-03-15T01:16:12.246Z,18.99
2019-03-15T01:16:52.845Z,18.99
2019-03-15T01:17:33.464Z,18.9
2019-03-15T01:18:14.202Z,18.92
2019-03-15T01:18:54.714Z,18.95
2019-03-15T01:19:35.350Z,18.99
2019-03-15T01:20:15.930Z,19
2019-03-15T01:20:56.537Z,18.98
2019-03-15T01:21:37.124Z,18.95
2019-03-15T01:22:17.708Z,18.91
2019-03-15T01:22:58.320Z,19.04
2019-03-15T01:23:38.914Z,18.95
2019-03-15T01:24:19.514Z,18.9
2019-03-15T01:25:00.355Z,18.92
2019-03-15T01:25:40.724Z,19.04
2019-03-15T01:26:21.302Z,19.02
2019-03-15T01:27:01.894Z,18.94
2019-03-15T01:27:42.496Z,18.92
2019-03-15T01:28:23.153Z,18.98
2019-03-15T01:29:03.782Z,18.94
2019-03-15T01:29:44.450Z,18.94
2019-03-15T01:30:25.066Z,18.95
2019-03-15T01:31:05.830Z,18.91
2019-03-15T01:31:46.348Z,18.88
2019-03-15T01:32:26.986Z,18.94
2019-03-15T01:33:07.648Z,18.95
2019-03-15T01:33:48.282Z,18.91
2019-03-15T01:34:28.906Z,18.94
2019-03-15T01:35:09.508Z,18.92
2019-03-15T01:35:50.126Z,18.94
2019-03-15T01:36:30.716Z,18.87
2019-03-15T01:37:11.315Z,18.91
2019-03-15T01:37:51.922Z,18.99
2019-03-15T01:38:32.524Z,18.92
2019-03-15T01:39:13.117Z,18.92
2019-03-15T01:39:53.730Z,18.92
2019-03-15T01:40:34.382Z,18.92
2019-03-15T01:41:14.977Z,18.92
2019-03-15T01:41:56.415Z,18.9
2019-03-15T01:42:36.216Z,18.91
2019-03-15T01:43:16.819Z,18.92
2019-03-15T01:43:57.418Z,18.92
2019-03-15T01:44:38.004Z,18.94
2019-03-15T01:45:18.598Z,18.92
2019-03-15T01:45:59.243Z,18.92
2019-03-15T01:46:39.849Z,18.92
2019-03-15T01:47:20.490Z,18.9
2019-03-15T01:48:01.070Z,18.91
2019-03-15T01:48:42.587Z,18.9
2019-03-15T01:49:22.364Z,18.91
2019-03-15T01:50:03.025Z,18.91
2019-03-15T01:50:43.612Z,18.92
2019-03-15T01:51:24.204Z,18.94
2019-03-15T01:52:04.808Z,18.9
2019-03-15T01:52:45.420Z,18.92
2019-03-15T01:53:26.033Z,18.94
2019-03-15T01:54:06.688Z,18.91
2019-03-15T01:54:47.295Z,18.91
2019-03-15T01:55:27.888Z,18.92
2019-03-15T01:56:08.487Z,18.87
2019-03-15T01:56:49.202Z,18.94
2019-03-15T01:57:29.836Z,18.94
2019-03-15T01:58:10.428Z,18.92
2019-03-15T01:58:51.036Z,18.92
2019-03-15T01:59:31.674Z,18.9
2019-03-15T02:00:12.336Z,18.94
2019-03-15T02:00:52.908Z,18.91
2019-03-15T02:01:33.503Z,18.92
2019-03-15T02:02:14.140Z,18.94
2019-03-15T02:02:54.811Z,18.9
2019-03-15T02:03:35.485Z,18.88
2019-03-15T02:04:16.102Z,18.91
2019-03-15T02:04:57.610Z,18.91
2019-03-15T02:05:37.281Z,18.87
2019-03-15T02:06:17.865Z,18.91
2019-03-15T02:06:58.496Z,18.94
2019-03-15T02:07:39.082Z,18.9
2019-03-15T02:08:19.742Z,18.88
2019-03-15T02:09:00.414Z,18.87
2019-03-15T02:09:41.052Z,18.95
2019-03-15T02:10:22.384Z,18.91
2019-03-15T02:11:03.614Z,18.87
2019-03-15T02:11:43.041Z,18.88
2019-03-15T02:12:23.640Z,18.9
2019-03-15T02:13:04.230Z,18.87
2019-03-15T02:13:44.812Z,18.88
2019-03-15T02:14:25.440Z,18.9
2019-03-15T02:15:06.163Z,18.9
2019-03-15T02:15:46.782Z,18.85
2019-03-15T02:16:27.414Z,18.9
2019-03-15T02:17:08.121Z,18.88
2019-03-15T02:17:48.762Z,18.81
2019-03-15T02:18:29.370Z,18.91
2019-03-15T02:19:10.379Z,18.91
2019-03-15T02:19:50.564Z,18.81
2019-03-15T02:20:31.172Z,18.88
2019-03-15T02:21:11.806Z,18.85
2019-03-15T02:21:52.491Z,18.85
2019-03-15T02:22:33.553Z,18.87
2019-03-15T02:23:13.700Z,18.87
2019-03-15T02:23:54.342Z,18.91
2019-03-15T02:24:35.050Z,18.88
2019-03-15T02:25:15.698Z,18.81
2019-03-15T02:25:56.300Z,18.91
2019-03-15T02:26:36.944Z,18.87
2019-03-15T02:27:17.558Z,18.85
2019-03-15T02:27:58.156Z,18.9
2019-03-15T02:28:38.820Z,18.8
2019-03-15T02:29:19.416Z,18.78
2019-03-15T02:30:00.021Z,18.87
2019-03-15T02:30:40.673Z,18.84
2019-03-15T02:31:21.326Z,18.85
2019-03-15T02:32:01.960Z,18.87
2019-03-15T02:32:42.596Z,18.81
2019-03-15T02:33:23.222Z,18.9
2019-03-15T02:34:03.816Z,18.81
2019-03-15T02:34:44.422Z,18.85
2019-03-15T02:35:25.062Z,18.8
2019-03-15T02:36:05.670Z,18.87
2019-03-15T02:36:46.270Z,18.8
2019-03-15T02:37:26.859Z,18.78
2019-03-15T02:38:07.527Z,18.78
2019-03-15T02:38:48.124Z,18.73
2019-03-15T02:39:28.724Z,18.78
2019-03-15T02:40:09.320Z,18.87
2019-03-15T02:40:49.911Z,18.81
2019-03-15T02:41:30.506Z,18.73
2019-03-15T02:42:11.094Z,18.76
2019-03-15T02:42:53.125Z,18.85
2019-03-15T02:43:32.283Z,18.84
2019-03-15T02:44:12.926Z,18.85
2019-03-15T02:44:53.489Z,18.82
2019-03-15T02:45:34.090Z,18.78
2019-03-15T02:46:14.697Z,18.76
2019-03-15T02:46:55.463Z,18.82
2019-03-15T02:47:35.990Z,18.82
2019-03-15T02:48:16.573Z,18.84
2019-03-15T02:48:57.153Z,18.78
2019-03-15T02:49:37.751Z,18.8
2019-03-15T02:50:18.398Z,18.73
2019-03-15T02:50:58.973Z,18.87
2019-03-15T02:51:39.570Z,18.75
2019-03-15T02:52:20.157Z,18.78
2019-03-15T02:53:00.762Z,18.82
2019-03-15T02:53:41.436Z,18.82
2019-03-15T02:54:22.040Z,18.84
2019-03-15T02:55:02.649Z,18.81
2019-03-15T02:55:43.264Z,18.8
2019-03-15T02:56:23.844Z,18.82
2019-03-15T02:57:04.442Z,18.85
2019-03-15T02:57:45.065Z,18.82
2019-03-15T02:58:25.663Z,18.82
2019-03-15T02:59:06.276Z,18.76
2019-03-15T02:59:47.307Z,18.82
2019-03-15T03:00:27.471Z,18.82
2019-03-15T03:01:08.063Z,18.8
2019-03-15T03:01:48.648Z,18.84
2019-03-15T03:02:29.245Z,18.8
2019-03-15T03:03:09.842Z,18.82
2019-03-15T03:03:50.441Z,18.84
2019-03-15T03:04:31.046Z,18.81
2019-03-15T03:05:11.648Z,18.8
2019-03-15T03:05:52.242Z,18.85
2019-03-15T03:06:32.853Z,18.78
2019-03-15T03:07:13.450Z,18.81
2019-03-15T03:07:54.051Z,18.84
2019-03-15T03:08:34.647Z,18.82
2019-03-15T03:09:15.244Z,18.75
2019-03-15T03:09:55.851Z,18.78
2019-03-15T03:10:36.443Z,18.8
2019-03-15T03:11:17.040Z,18.78
2019-03-15T03:11:57.662Z,18.73
2019-03-15T03:12:38.249Z,18.75
2019-03-15T03:13:19.056Z,18.7
2019-03-15T03:13:59.445Z,18.76
2019-03-15T03:14:40.055Z,18.76
2019-03-15T03:15:20.656Z,18.81
2019-03-15T03:16:01.276Z,18.76
2019-03-15T03:16:41.873Z,18.75
2019-03-15T03:17:22.487Z,18.73
2019-03-15T03:18:03.089Z,18.76
2019-03-15T03:18:43.681Z,18.78
2019-03-15T03:19:24.288Z,18.78
2019-03-15T03:20:04.881Z,18.78
2019-03-15T03:20:45.625Z,18.76
2019-03-15T03:21:26.074Z,18.8
2019-03-15T03:22:06.682Z,18.75
2019-03-15T03:22:47.293Z,18.8
2019-03-15T03:23:27.892Z,18.81
2019-03-15T03:24:08.509Z,18.75
2019-03-15T03:24:49.165Z,18.76
2019-03-15T03:25:29.683Z,18.76
2019-03-15T03:26:10.281Z,18.8
2019-03-15T03:26:50.855Z,18.87
2019-03-15T03:27:31.458Z,18.75
2019-03-15T03:28:12.063Z,18.78
2019-03-15T03:28:54.027Z,18.81
2019-03-15T03:29:33.265Z,18.75
2019-03-15T03:30:16.393Z,18.8
2019-03-15T03:30:54.473Z,18.78
2019-03-15T03:31:35.115Z,18.78
2019-03-15T03:32:15.767Z,18.75
2019-03-15T03:32:56.374Z,18.75
2019-03-15T03:33:36.968Z,18.78
2019-03-15T03:34:17.556Z,18.75
2019-03-15T03:34:58.166Z,18.76
2019-03-15T03:35:38.763Z,18.76
2019-03-15T03:36:19.348Z,18.76
2019-03-15T03:36:59.947Z,18.78
2019-03-15T03:37:40.562Z,18.73
2019-03-15T03:38:21.170Z,18.75
2019-03-15T03:39:01.751Z,18.73
2019-03-15T03:39:42.351Z,18.78
2019-03-15T03:40:22.945Z,18.73
2019-03-15T03:41:03.545Z,18.73
2019-03-15T03:41:44.148Z,18.78
2019-03-15T03:42:24.753Z,18.7
2019-03-15T03:43:05.352Z,18.73
2019-03-15T03:43:45.954Z,18.73
2019-03-15T03:44:26.553Z,18.8
2019-03-15T03:45:07.151Z,18.73
2019-03-15T03:45:47.737Z,18.76
2019-03-15T03:46:28.328Z,18.78
2019-03-15T03:47:08.931Z,18.78
2019-03-15T03:47:49.519Z,18.76
2019-03-15T03:48:30.114Z,18.73
2019-03-15T03:49:10.707Z,18.76
2019-03-15T03:49:51.339Z,18.8
2019-03-15T03:50:31.928Z,18.76
2019-03-15T03:51:12.522Z,18.76
2019-03-15T03:51:54.926Z,18.78
2019-03-15T03:52:35.517Z,18.73
2019-03-15T03:53:16.123Z,18.69
2019-03-15T03:53:56.712Z,18.76
2019-03-15T03:54:37.327Z,18.72
2019-03-15T03:55:17.916Z,18.73
2019-03-15T03:55:58.522Z,18.75
2019-03-15T03:56:39.243Z,18.78
2019-03-15T03:57:19.995Z,18.7
2019-03-15T03:58:00.605Z,18.73
2019-03-15T03:58:41.202Z,18.76
2019-03-15T03:59:21.791Z,18.8
2019-03-15T04:00:02.391Z,18.73
2019-03-15T04:00:43.005Z,18.76
2019-03-15T04:01:23.608Z,18.75
2019-03-15T04:02:04.206Z,18.81
2019-03-15T04:02:44.802Z,18.78
2019-03-15T04:03:25.401Z,18.7
2019-03-15T04:04:05.999Z,18.73
2019-03-15T04:04:46.608Z,18.72
2019-03-15T04:05:27.203Z,18.75
2019-03-15T04:06:07.806Z,18.65
2019-03-15T04:06:48.412Z,18.69
2019-03-15T04:07:30.825Z,18.66
2019-03-15T04:08:11.411Z,18.75
2019-03-15T04:08:52.010Z,18.75
2019-03-15T04:09:32.587Z,18.75
2019-03-15T04:10:13.183Z,18.76
2019-03-15T04:10:53.763Z,18.73
2019-03-15T04:11:34.467Z,18.66
2019-03-15T04:12:15.100Z,18.72
2019-03-15T04:12:55.726Z,18.7
2019-03-15T04:13:36.325Z,18.81
2019-03-15T04:14:16.927Z,18.67
2019-03-15T04:14:57.536Z,18.66
2019-03-15T04:15:38.125Z,18.7
2019-03-15T04:16:18.729Z,18.76
2019-03-15T04:16:59.385Z,18.66
2019-03-15T04:17:39.996Z,18.69
2019-03-15T04:18:20.610Z,18.7
2019-03-15T04:19:01.199Z,18.73
2019-03-15T04:19:41.800Z,18.75
2019-03-15T04:20:22.389Z,18.75
2019-03-15T04:21:02.992Z,18.69
2019-03-15T04:21:43.596Z,18.72
2019-03-15T04:22:24.174Z,18.75
2019-03-15T04:23:04.766Z,18.75
2019-03-15T04:23:45.360Z,18.7
2019-03-15T04:24:25.957Z,18.73
2019-03-15T04:25:07.276Z,18.72
2019-03-15T04:25:47.164Z,18.82
2019-03-15T04:26:27.766Z,18.75
2019-03-15T04:27:08.370Z,18.73
2019-03-15T04:27:48.975Z,18.75
2019-03-15T04:28:29.569Z,18.75
2019-03-15T04:29:10.163Z,18.7
2019-03-15T04:29:50.766Z,18.75
2019-03-15T04:30:31.356Z,18.67
2019-03-15T04:31:12.007Z,18.7
2019-03-15T04:31:52.646Z,18.66
2019-03-15T04:32:34.260Z,18.62
2019-03-15T04:33:15.855Z,18.73
2019-03-15T04:33:56.447Z,18.78
2019-03-15T04:34:37.229Z,18.69
2019-03-15T04:35:17.637Z,18.65
2019-03-15T04:35:58.225Z,18.73
2019-03-15T04:36:38.860Z,18.78
2019-03-15T04:37:22.545Z,18.69
2019-03-15T04:38:00.052Z,18.73
2019-03-15T04:38:40.676Z,18.72
2019-03-15T04:39:21.254Z,18.73
2019-03-15T04:40:01.864Z,18.85
2019-03-15T04:40:42.469Z,18.8
2019-03-15T04:41:23.069Z,18.78
2019-03-15T04:42:03.812Z,18.7
2019-03-15T04:42:44.407Z,18.75
2019-03-15T04:43:25.007Z,18.81
2019-03-15T04:44:05.604Z,18.78
2019-03-15T04:44:46.208Z,18.76
2019-03-15T04:45:26.802Z,18.72
2019-03-15T04:46:07.434Z,18.75
2019-03-15T04:46:48.020Z,18.75
2019-03-15T04:47:28.655Z,18.7
2019-03-15T04:48:09.323Z,18.76
2019-03-15T04:48:49.924Z,18.76
2019-03-15T04:49:30.522Z,18.82
2019-03-15T04:50:11.118Z,18.78
2019-03-15T04:50:51.746Z,18.75
2019-03-15T04:51:32.352Z,18.76
2019-03-15T04:52:12.950Z,18.76
2019-03-15T04:52:53.537Z,18.73
2019-03-15T04:53:34.151Z,18.85
2019-03-15T04:54:14.804Z,18.73
2019-03-15T04:54:55.398Z,18.75
2019-03-15T04:55:36.003Z,18.7
2019-03-15T04:56:16.666Z,18.72
2019-03-15T04:56:57.255Z,18.63
2019-03-15T04:57:37.868Z,18.7
2019-03-15T04:58:18.464Z,18.75
2019-03-15T04:58:59.084Z,18.76
2019-03-15T04:59:39.688Z,18.75
2019-03-15T05:00:20.294Z,18.72
2019-03-15T05:01:00.908Z,18.7
2019-03-15T05:01:41.515Z,18.72
2019-03-15T05:02:23.827Z,18.69
2019-03-15T05:03:04.410Z,18.73
2019-03-15T05:03:45.078Z,18.72
2019-03-15T05:04:25.692Z,18.66
2019-03-15T05:05:06.278Z,18.75
2019-03-15T05:05:46.864Z,18.65
2019-03-15T05:06:27.588Z,18.7
2019-03-15T05:07:08.132Z,18.66
2019-03-15T05:07:48.724Z,18.67
2019-03-15T05:08:29.358Z,18.69
2019-03-15T05:09:09.963Z,18.67
2019-03-15T05:09:50.600Z,18.67
2019-03-15T05:10:31.282Z,18.67
2019-03-15T05:11:11.794Z,18.66
2019-03-15T05:11:52.402Z,18.65
2019-03-15T05:12:32.998Z,18.62
2019-03-15T05:13:13.610Z,18.63
2019-03-15T05:13:54.206Z,18.7
2019-03-15T05:14:34.941Z,18.65
2019-03-15T05:15:15.538Z,18.67
2019-03-15T05:15:56.135Z,18.72
2019-03-15T05:16:36.734Z,18.66
2019-03-15T05:17:17.316Z,18.62
2019-03-15T05:17:57.920Z,18.69
2019-03-15T05:18:38.518Z,18.65
2019-03-15T05:19:19.126Z,18.66
2019-03-15T05:19:59.726Z,18.66
2019-03-15T05:20:40.326Z,18.52
2019-03-15T05:21:20.952Z,18.58
2019-03-15T05:22:01.544Z,18.55
2019-03-15T05:22:42.150Z,18.55
2019-03-15T05:23:22.733Z,18.55
2019-03-15T05:24:03.335Z,18.58
2019-03-15T05:24:43.924Z,18.58
2019-03-15T05:25:24.522Z,18.65
2019-03-15T05:26:05.113Z,18.57
2019-03-15T05:26:45.782Z,18.58
2019-03-15T05:27:26.424Z,18.6
2019-03-15T05:28:06.998Z,18.55
2019-03-15T05:28:47.618Z,18.5
2019-03-15T05:29:28.261Z,18.58
2019-03-15T05:30:08.912Z,18.62
2019-03-15T05:30:49.510Z,18.55
2019-03-15T05:31:30.150Z,18.54
2019-03-15T05:32:10.758Z,18.55
2019-03-15T05:32:51.350Z,18.54
2019-03-15T05:33:31.975Z,18.48
2019-03-15T05:34:12.568Z,18.5
2019-03-15T05:34:53.174Z,18.54
2019-03-15T05:35:33.770Z,18.54
2019-03-15T05:36:14.390Z,18.55
2019-03-15T05:36:54.992Z,18.66
2019-03-15T05:37:35.612Z,18.51
2019-03-15T05:38:16.234Z,18.54
2019-03-15T05:38:56.832Z,18.54
2019-03-15T05:39:37.470Z,18.51
2019-03-15T05:40:18.068Z,18.54
2019-03-15T05:40:58.681Z,18.57
2019-03-15T05:41:39.294Z,18.57
2019-03-15T05:42:19.938Z,18.58
2019-03-15T05:43:00.468Z,18.52
2019-03-15T05:43:41.076Z,18.55
2019-03-15T05:44:21.676Z,18.52
2019-03-15T05:45:02.293Z,18.58
2019-03-15T05:45:42.879Z,18.52
2019-03-15T05:46:23.474Z,18.45
2019-03-15T05:47:04.066Z,18.54
2019-03-15T05:47:44.658Z,18.54
2019-03-15T05:48:25.258Z,18.54
2019-03-15T05:49:05.855Z,18.52
2019-03-15T05:49:46.450Z,18.52
2019-03-15T05:50:27.064Z,18.48
2019-03-15T05:51:07.662Z,18.51
2019-03-15T05:51:48.252Z,18.52
2019-03-15T05:52:28.881Z,18.52
2019-03-15T05:53:09.526Z,18.55
2019-03-15T05:53:50.079Z,18.57
2019-03-15T05:54:30.680Z,18.58
2019-03-15T05:55:11.305Z,18.5
2019-03-15T05:55:51.900Z,18.54
2019-03-15T05:56:32.478Z,18.55
2019-03-15T05:57:13.092Z,18.47
2019-03-15T05:57:53.680Z,18.5
2019-03-15T05:58:34.272Z,18.57
2019-03-15T05:59:14.866Z,18.55
2019-03-15T05:59:55.456Z,18.5
2019-03-15T06:00:36.062Z,18.51
2019-03-15T06:01:16.700Z,18.54
2019-03-15T06:01:57.322Z,18.55
2019-03-15T06:02:37.932Z,18.5
2019-03-15T06:03:18.680Z,18.47
2019-03-15T06:03:59.226Z,18.48
2019-03-15T06:04:39.823Z,18.58
2019-03-15T06:05:20.414Z,18.52
2019-03-15T06:06:01.010Z,18.51
2019-03-15T06:06:41.620Z,18.52
2019-03-15T06:07:22.219Z,18.5
2019-03-15T06:08:02.854Z,18.57
2019-03-15T06:08:43.442Z,18.48
2019-03-15T06:09:24.028Z,18.63
2019-03-15T06:10:04.612Z,18.52
2019-03-15T06:10:45.242Z,18.58
2019-03-15T06:11:25.862Z,18.47
2019-03-15T06:12:06.518Z,18.52
2019-03-15T06:12:47.110Z,18.58
2019-03-15T06:13:27.718Z,18.57
2019-03-15T06:14:08.346Z,18.48
2019-03-15T06:14:48.986Z,18.48
2019-03-15T06:15:29.685Z,18.57
2019-03-15T06:16:10.332Z,18.54
2019-03-15T06:16:50.948Z,18.55
2019-03-15T06:17:31.609Z,18.51
2019-03-15T06:18:12.206Z,18.52
2019-03-15T06:18:52.817Z,18.58
2019-03-15T06:19:33.455Z,18.55
2019-03-15T06:20:14.054Z,18.54
2019-03-15T06:20:54.666Z,18.52
2019-03-15T06:21:35.252Z,18.58
2019-03-15T06:22:15.850Z,18.52
2019-03-15T06:22:56.517Z,18.55
2019-03-15T06:23:37.138Z,18.55
2019-03-15T06:24:17.730Z,18.51
2019-03-15T06:24:58.326Z,18.63
2019-03-15T06:25:38.962Z,18.51
2019-03-15T06:26:19.574Z,18.52
2019-03-15T06:27:00.168Z,18.47
2019-03-15T06:27:40.762Z,18.58
2019-03-15T06:28:21.369Z,18.57
2019-03-15T06:29:02.006Z,18.51
2019-03-15T06:29:42.604Z,18.51
2019-03-15T06:30:23.248Z,18.5
2019-03-15T06:31:03.912Z,18.47
2019-03-15T06:31:44.520Z,18.51
2019-03-15T06:32:25.122Z,18.55
2019-03-15T06:33:05.729Z,18.54
2019-03-15T06:33:46.330Z,18.5
2019-03-15T06:34:26.942Z,18.52
2019-03-15T06:35:07.546Z,18.51
2019-03-15T06:35:48.144Z,18.52
2019-03-15T06:36:28.737Z,18.47
2019-03-15T06:37:09.356Z,18.47
2019-03-15T06:37:49.973Z,18.48
2019-03-15T06:38:33.349Z,18.52
2019-03-15T06:39:11.200Z,18.47
2019-03-15T06:39:51.826Z,18.54
2019-03-15T06:40:32.578Z,18.52
2019-03-15T06:41:14.391Z,18.57
2019-03-15T06:41:53.809Z,18.45
2019-03-15T06:42:34.278Z,18.48
2019-03-15T06:43:14.871Z,18.48
2019-03-15T06:43:55.550Z,18.47
2019-03-15T06:44:37.460Z,18.48
2019-03-15T06:45:16.795Z,18.47
2019-03-15T06:45:57.428Z,18.58
2019-03-15T06:46:38.082Z,18.48
2019-03-15T06:47:18.740Z,18.51
2019-03-15T06:47:59.338Z,18.52
2019-03-15T06:48:39.960Z,18.44
2019-03-15T06:49:21.122Z,18.48
2019-03-15T06:50:01.181Z,18.52
2019-03-15T06:50:41.792Z,18.54
2019-03-15T06:51:22.386Z,18.54
2019-03-15T06:52:03.014Z,18.54
2019-03-15T06:52:46.525Z,18.54
2019-03-15T06:53:27.117Z,18.51
2019-03-15T06:54:11.559Z,18.51
2019-03-15T06:54:48.406Z,18.47
2019-03-15T06:55:29.149Z,18.51
2019-03-15T06:56:09.696Z,18.57
2019-03-15T06:56:50.318Z,18.57
2019-03-15T06:57:31.078Z,18.52
2019-03-15T06:58:11.706Z,18.52
2019-03-15T06:58:52.289Z,18.5
2019-03-15T06:59:32.916Z,18.51
2019-03-15T07:00:13.612Z,18.51
2019-03-15T07:00:54.848Z,18.5
2019-03-15T07:01:34.890Z,18.44
2019-03-15T07:02:15.548Z,18.57
2019-03-15T07:02:56.203Z,18.48
2019-03-15T07:03:36.798Z,18.5
2019-03-15T07:04:17.404Z,18.47
2019-03-15T07:04:58.052Z,18.48
2019-03-15T07:05:38.632Z,18.55
2019-03-15T07:06:19.229Z,18.62
2019-03-15T07:06:59.828Z,18.66
2019-03-15T07:07:40.426Z,18.9
2019-03-15T07:08:21.042Z,19.13
2019-03-15T07:09:01.672Z,19.26
2019-03-15T07:09:42.270Z,19.5
2019-03-15T07:10:22.877Z,19.68
2019-03-15T07:11:03.488Z,19.78
2019-03-15T07:11:44.090Z,19.94
2019-03-15T07:12:24.690Z,20.13
2019-03-15T07:13:05.290Z,20.26
2019-03-15T07:13:45.874Z,20.32
2019-03-15T07:14:26.499Z,20.57
2019-03-15T07:15:07.104Z,20.51
2019-03-15T07:15:47.720Z,20.17
2019-03-15T07:16:28.347Z,20.01
2019-03-15T07:17:08.954Z,19.69
2019-03-15T07:17:49.564Z,19.51
2019-03-15T07:18:30.190Z,19.37
2019-03-15T07:19:10.784Z,19.21
2019-03-15T07:19:51.412Z,19.11
2019-03-15T07:20:32.016Z,19.02
2019-03-15T07:21:13.727Z,19.06
2019-03-15T07:21:53.226Z,18.98
2019-03-15T07:22:33.832Z,19
2019-03-15T07:23:14.410Z,19.06
2019-03-15T07:23:57.655Z,19.08
2019-03-15T07:24:35.676Z,19.08
2019-03-15T07:25:16.279Z,19
2019-03-15T07:25:56.871Z,19.08
2019-03-15T07:26:37.490Z,19.11
2019-03-15T07:27:18.085Z,19.13
2019-03-15T07:27:58.683Z,19.16
2019-03-15T07:28:39.294Z,19.11
2019-03-15T07:29:19.905Z,19.1
2019-03-15T07:30:00.642Z,19.13
2019-03-15T07:30:41.144Z,19.13
2019-03-15T07:31:21.784Z,19.06
2019-03-15T07:32:02.412Z,19.04
2019-03-15T07:32:43.018Z,19
2019-03-15T07:33:23.623Z,19.08
2019-03-15T07:34:04.226Z,19.02
2019-03-15T07:34:44.839Z,19.04
2019-03-15T07:35:25.439Z,19
2019-03-15T07:36:06.028Z,18.94
2019-03-15T07:36:46.646Z,18.94
2019-03-15T07:37:27.244Z,19
2019-03-15T07:38:07.850Z,18.98
2019-03-15T07:38:48.430Z,19.04
2019-03-15T07:39:29.023Z,18.92
2019-03-15T07:40:09.656Z,18.99
2019-03-15T07:40:50.247Z,18.94
2019-03-15T07:41:30.837Z,18.91
2019-03-15T07:42:11.438Z,18.91
2019-03-15T07:42:52.026Z,18.92
2019-03-15T07:43:32.632Z,18.92
2019-03-15T07:44:13.256Z,18.94
2019-03-15T07:44:53.875Z,18.94
2019-03-15T07:45:34.484Z,18.9
2019-03-15T07:46:15.091Z,18.92
2019-03-15T07:46:55.684Z,18.9
2019-03-15T07:47:36.310Z,18.9
2019-03-15T07:48:22.130Z,18.9
2019-03-15T07:48:57.500Z,18.9
2019-03-15T07:49:38.091Z,18.91
2019-03-15T07:50:18.686Z,18.88
2019-03-15T07:50:59.282Z,18.88
2019-03-15T07:51:39.870Z,18.88
2019-03-15T07:52:20.471Z,18.8
2019-03-15T07:53:01.063Z,18.85
2019-03-15T07:53:41.673Z,18.84
2019-03-15T07:54:22.286Z,18.8
2019-03-15T07:55:02.879Z,18.81
2019-03-15T07:55:43.470Z,18.85
2019-03-15T07:56:24.086Z,18.8
2019-03-15T07:57:04.684Z,18.76
2019-03-15T07:57:45.292Z,18.84
2019-03-15T07:58:25.886Z,18.8
2019-03-15T07:59:06.518Z,18.85
2019-03-15T07:59:47.122Z,18.81
2019-03-15T08:00:27.738Z,18.78
2019-03-15T08:01:08.332Z,18.81
2019-03-15T08:01:48.955Z,18.82
2019-03-15T08:02:29.560Z,18.82
2019-03-15T08:03:10.169Z,18.8
2019-03-15T08:03:50.752Z,18.84
2019-03-15T08:04:31.352Z,18.82
2019-03-15T08:05:11.954Z,18.76
2019-03-15T08:05:52.530Z,18.8
2019-03-15T08:06:34.915Z,18.84
2019-03-15T08:07:13.782Z,18.76
2019-03-15T08:07:54.364Z,18.78
2019-03-15T08:08:35.000Z,18.72
2019-03-15T08:09:15.582Z,18.78
2019-03-15T08:09:56.184Z,18.78
2019-03-15T08:10:36.787Z,18.78
2019-03-15T08:11:17.420Z,18.8
2019-03-15T08:11:58.008Z,18.82
2019-03-15T08:12:38.951Z,18.73
2019-03-15T08:13:19.212Z,18.76
2019-03-15T08:13:59.802Z,18.76
2019-03-15T08:14:40.399Z,18.75
2019-03-15T08:15:21.007Z,18.75
2019-03-15T08:16:01.617Z,18.8
2019-03-15T08:16:42.206Z,18.76
2019-03-15T08:17:22.800Z,18.78
2019-03-15T08:18:03.400Z,18.78
2019-03-15T08:18:44.025Z,18.78
2019-03-15T08:19:24.592Z,18.78
2019-03-15T08:20:05.193Z,18.73
2019-03-15T08:20:45.784Z,18.78
2019-03-15T08:21:26.365Z,18.76
2019-03-15T08:22:06.962Z,18.8
2019-03-15T08:22:47.561Z,18.8
2019-03-15T08:23:28.142Z,18.73
2019-03-15T08:24:08.732Z,18.75
2019-03-15T08:24:51.651Z,18.78
2019-03-15T08:25:29.984Z,18.73
2019-03-15T08:26:10.656Z,18.81
2019-03-15T08:26:51.242Z,18.78
2019-03-15T08:27:31.839Z,18.73
2019-03-15T08:28:12.485Z,18.75
2019-03-15T08:28:53.043Z,18.69
2019-03-15T08:29:33.628Z,18.82
2019-03-15T08:30:14.265Z,18.7
2019-03-15T08:30:54.868Z,18.76
2019-03-15T08:31:35.460Z,18.78
2019-03-15T08:32:16.090Z,18.84
2019-03-15T08:33:09.400Z,18.73
2019-03-15T08:33:37.282Z,18.73
2019-03-15T08:34:17.904Z,18.76
2019-03-15T08:34:58.488Z,18.7
2019-03-15T08:35:39.081Z,18.76
2019-03-15T08:36:20.362Z,18.75
2019-03-15T08:37:00.268Z,18.76
2019-03-15T08:37:40.856Z,18.75
2019-03-15T08:38:21.443Z,18.75
2019-03-15T08:39:02.039Z,18.72
2019-03-15T08:39:42.633Z,18.78
2019-03-15T08:40:25.754Z,18.73
2019-03-15T08:41:03.832Z,18.7
2019-03-15T08:41:44.434Z,18.75
2019-03-15T08:42:25.078Z,18.78
2019-03-15T08:43:05.658Z,18.76
2019-03-15T08:43:46.241Z,18.73
2019-03-15T08:44:26.872Z,18.76
2019-03-15T08:45:07.464Z,18.75
2019-03-15T08:45:48.089Z,18.75
2019-03-15T08:46:28.684Z,18.72